createdAt,value
2022-11-30T00:01:53.722Z,46.40
2022-11-30T00:04:21.800Z,45.30
2022-11-30T00:06:49.819Z,45.53
2022-11-30T00:09:17.842Z,46.07
2022-11-30T00:11:47.607Z,43.47
2022-11-30T00:14:15.585Z,46.03
2022-11-30T00:16:43.595Z,44.40
2022-11-30T00:19:11.652Z,45.20
2022-11-30T00:21:39.644Z,43.97
2022-11-30T00:24:08.244Z,46.30
2022-11-30T00:26:36.384Z,44.20
2022-11-30T00:29:06.533Z,44.23
2022-11-30T00:31:34.543Z,44.40
2022-11-30T00:34:02.586Z,44.30
2022-11-30T00:36:30.595Z,43.43
2022-11-30T00:38:58.577Z,44.20
2022-11-30T00:41:26.564Z,42.00
2022-11-30T00:43:54.533Z,43.93
2022-11-30T00:46:23.928Z,39.80
2022-11-30T00:48:52.102Z,44.53
2022-11-30T00:51:20.397Z,42.17
2022-11-30T00:53:48.623Z,43.10
2022-11-30T00:56:16.664Z,44.37
2022-11-30T00:58:45.017Z,44.47
2022-11-30T01:01:13.062Z,44.70
2022-11-30T01:03:42.531Z,40.97
2022-11-30T01:06:11.381Z,47.37
2022-11-30T01:08:39.425Z,41.30
2022-11-30T01:11:10.457Z,44.60
2022-11-30T01:13:38.467Z,44.53
2022-11-30T01:16:11.912Z,43.47
2022-11-30T01:18:42.251Z,46.57
2022-11-30T01:21:13.571Z,44.40
2022-11-30T01:23:41.965Z,43.63
2022-11-30T01:26:10.548Z,43.23
2022-11-30T01:28:40.766Z,43.07
2022-11-30T01:31:11.008Z,44.47
2022-11-30T01:33:39.224Z,42.73
2022-11-30T01:36:12.121Z,42.60
2022-11-30T01:38:41.633Z,42.60
2022-11-30T01:41:12.197Z,42.37
2022-11-30T01:43:42.261Z,39.93
2022-11-30T01:46:22.800Z,41.90
2022-11-30T01:48:57.923Z,41.77
2022-11-30T01:51:30.597Z,42.60
2022-11-30T01:53:59.229Z,38.40
2022-11-30T01:56:27.348Z,43.43
2022-11-30T01:58:55.348Z,42.73
2022-11-30T02:01:23.851Z,40.80
2022-11-30T02:03:57.937Z,44.13
2022-11-30T02:06:27.420Z,40.73
2022-11-30T02:08:56.518Z,43.10
2022-11-30T02:11:25.235Z,40.30
2022-11-30T02:14:06.701Z,38.77
2022-11-30T02:16:48.762Z,36.73
2022-11-30T02:19:49.945Z,40.87
2022-11-30T02:22:31.478Z,41.23
2022-11-30T02:25:09.466Z,41.53
2022-11-30T02:27:57.526Z,40.97
2022-11-30T02:30:27.390Z,41.00
2022-11-30T02:33:00.040Z,36.93
2022-11-30T02:35:31.024Z,37.63
2022-11-30T02:38:01.038Z,42.07
2022-11-30T02:40:29.508Z,42.23
2022-11-30T02:42:59.873Z,42.17
2022-11-30T02:45:35.568Z,41.97
2022-11-30T02:48:09.141Z,42.53
2022-11-30T02:50:41.966Z,40.17
2022-11-30T02:53:11.368Z,39.87
2022-11-30T02:55:39.403Z,42.53
2022-11-30T02:58:07.761Z,40.77
2022-11-30T03:00:37.364Z,38.57
2022-11-30T03:03:05.503Z,41.00
2022-11-30T03:05:33.604Z,40.87
2022-11-30T03:08:01.759Z,40.83
2022-11-30T03:10:29.813Z,40.63
2022-11-30T03:12:59.264Z,40.57
2022-11-30T03:15:27.498Z,38.13
2022-11-30T03:17:57.051Z,42.57
2022-11-30T03:20:25.037Z,39.87
2022-11-30T03:22:53.113Z,40.33
2022-11-30T03:25:21.160Z,43.13
2022-11-30T03:27:49.143Z,39.80
2022-11-30T03:30:17.916Z,40.53
2022-11-30T03:32:45.896Z,34.93
2022-11-30T03:35:15.372Z,42.83
2022-11-30T03:37:43.405Z,41.23
2022-11-30T03:40:12.444Z,38.47
2022-11-30T03:42:40.462Z,41.00
2022-11-30T03:45:08.870Z,43.60
2022-11-30T03:47:36.881Z,43.27
2022-11-30T03:50:05.373Z,43.10
2022-11-30T03:52:34.730Z,39.27
2022-11-30T03:55:02.701Z,43.00
2022-11-30T03:57:30.717Z,43.03
2022-11-30T03:59:58.713Z,41.10
2022-11-30T04:02:26.789Z,41.37
2022-11-30T04:04:54.803Z,42.83
2022-11-30T04:07:22.911Z,40.83
2022-11-30T04:09:52.353Z,39.83
2022-11-30T04:12:20.357Z,38.33
2022-11-30T04:14:48.612Z,39.23
2022-11-30T04:17:16.768Z,43.23
2022-11-30T04:19:44.768Z,39.60
2022-11-30T04:22:12.751Z,38.87
2022-11-30T04:24:40.716Z,39.57
2022-11-30T04:27:10.057Z,41.13
2022-11-30T04:29:38.021Z,38.83
2022-11-30T04:32:06.285Z,42.17
2022-11-30T04:34:34.256Z,44.87
2022-11-30T04:37:02.258Z,41.83
2022-11-30T04:39:30.289Z,42.67
2022-11-30T04:41:58.302Z,42.10
2022-11-30T04:44:27.676Z,36.40
2022-11-30T04:46:55.790Z,37.17
2022-11-30T04:49:23.819Z,40.87
2022-11-30T04:51:51.817Z,40.33
2022-11-30T04:54:19.892Z,42.57
2022-11-30T04:56:47.885Z,42.03
2022-11-30T04:59:15.858Z,37.57
2022-11-30T05:01:45.235Z,40.77
2022-11-30T05:04:13.248Z,41.53
2022-11-30T05:06:41.316Z,40.43
2022-11-30T05:09:09.291Z,41.60
2022-11-30T05:11:37.542Z,40.97
2022-11-30T05:14:06.273Z,43.20
2022-11-30T05:16:34.571Z,40.67
2022-11-30T05:19:04.089Z,37.23
2022-11-30T05:21:32.184Z,40.83
2022-11-30T05:24:00.436Z,46.13
2022-11-30T05:26:28.456Z,39.90
2022-11-30T05:28:56.829Z,40.87
2022-11-30T05:31:26.126Z,36.93
2022-11-30T05:33:54.931Z,42.17
2022-11-30T05:36:24.651Z,43.30
2022-11-30T05:38:52.652Z,41.00
2022-11-30T05:41:22.102Z,39.07
2022-11-30T05:43:50.764Z,41.07
2022-11-30T05:46:19.081Z,37.43
2022-11-30T05:48:47.263Z,43.73
2022-11-30T05:51:17.644Z,41.83
2022-11-30T05:53:47.954Z,40.20
2022-11-30T05:56:17.660Z,42.97
2022-11-30T05:58:46.416Z,42.63
2022-11-30T06:01:19.981Z,43.20
2022-11-30T06:03:48.230Z,43.17
2022-11-30T06:06:16.518Z,41.43
2022-11-30T06:08:47.468Z,44.50
2022-11-30T06:11:16.026Z,43.13
2022-11-30T06:13:45.141Z,42.77
2022-11-30T06:16:13.858Z,41.77
2022-11-30T06:18:42.075Z,40.60
2022-11-30T06:21:12.245Z,42.70
2022-11-30T06:23:40.341Z,39.60
2022-11-30T06:26:11.921Z,43.03
2022-11-30T06:28:48.224Z,45.73
2022-11-30T06:31:17.998Z,46.13
2022-11-30T06:33:46.887Z,44.70
2022-11-30T06:36:15.352Z,44.60
2022-11-30T06:38:43.531Z,46.20
2022-11-30T06:41:13.116Z,45.53
2022-11-30T06:43:41.635Z,41.90
2022-11-30T06:46:10.587Z,45.93
2022-11-30T06:48:39.568Z,40.40
2022-11-30T06:51:08.169Z,43.77
2022-11-30T06:53:36.696Z,46.10
2022-11-30T06:56:10.771Z,46.00
2022-11-30T06:58:41.536Z,44.90
2022-11-30T07:01:10.951Z,46.40
2022-11-30T07:03:39.710Z,45.60
2022-11-30T07:06:10.186Z,44.80
2022-11-30T07:08:38.537Z,43.53
2022-11-30T07:11:07.104Z,42.93
2022-11-30T07:13:35.374Z,45.13
2022-11-30T07:16:06.876Z,45.20
2022-11-30T07:18:35.516Z,44.10
2022-11-30T07:21:06.009Z,41.93
2022-11-30T07:23:56.215Z,46.53
2022-11-30T07:26:25.229Z,43.47
2022-11-30T07:28:57.988Z,42.93
2022-11-30T07:31:28.977Z,43.60
2022-11-30T07:33:58.151Z,42.17
2022-11-30T07:36:29.557Z,44.40
2022-11-30T07:38:57.563Z,44.77
2022-11-30T07:41:25.692Z,42.80
2022-11-30T07:43:53.856Z,44.07
2022-11-30T07:46:22.150Z,42.80
2022-11-30T07:48:51.712Z,41.53
2022-11-30T07:51:21.815Z,44.17
2022-11-30T07:53:50.226Z,41.73
2022-11-30T07:56:20.576Z,42.50
2022-11-30T07:58:49.761Z,43.63
2022-11-30T08:01:19.618Z,43.50
2022-11-30T08:03:47.905Z,43.20
2022-11-30T08:06:20.595Z,41.00
2022-11-30T08:08:50.091Z,45.23
2022-11-30T08:11:20.227Z,43.67
2022-11-30T08:13:48.249Z,42.30
2022-11-30T08:16:19.725Z,45.80
2022-11-30T08:18:48.550Z,43.87
2022-11-30T08:21:19.463Z,44.97
2022-11-30T08:23:49.353Z,42.00
2022-11-30T08:26:18.998Z,45.50
2022-11-30T08:28:48.801Z,42.50
2022-11-30T08:31:18.783Z,43.20
2022-11-30T08:33:46.864Z,43.10
2022-11-30T08:36:17.733Z,42.13
2022-11-30T08:38:46.966Z,43.60
2022-11-30T08:41:17.420Z,43.53
2022-11-30T08:43:45.728Z,41.50
2022-11-30T08:46:49.168Z,42.77
2022-11-30T08:57:33.008Z,43.77
2022-11-30T09:00:01.176Z,42.60
2022-11-30T09:02:29.284Z,40.93
2022-11-30T09:04:57.307Z,41.87
2022-11-30T09:07:26.678Z,39.23
2022-11-30T09:09:54.725Z,43.83
2022-11-30T09:12:22.753Z,41.20
2022-11-30T09:14:57.155Z,43.40
2022-11-30T09:17:26.265Z,42.87
2022-11-30T09:19:54.800Z,41.37
2022-11-30T09:22:22.852Z,42.07
2022-11-30T09:24:52.295Z,42.27
2022-11-30T09:27:20.452Z,40.63
2022-11-30T09:29:48.434Z,38.43
2022-11-30T09:32:16.424Z,44.90
2022-11-30T09:34:45.227Z,41.73
2022-11-30T09:37:13.496Z,43.37
2022-11-30T09:39:41.469Z,41.77
2022-11-30T09:42:27.249Z,42.97
2022-11-30T09:45:02.432Z,39.67
2022-11-30T09:47:50.290Z,42.03
2022-11-30T09:50:21.466Z,38.70
2022-11-30T09:52:53.090Z,41.87
2022-11-30T09:55:27.594Z,38.60
2022-11-30T09:57:59.581Z,40.93
2022-11-30T10:00:27.790Z,38.63
2022-11-30T10:02:57.727Z,40.37
2022-11-30T10:05:30.030Z,40.03
2022-11-30T10:08:18.128Z,41.10
2022-11-30T10:10:52.680Z,39.13
2022-11-30T10:13:39.238Z,39.27
2022-11-30T10:16:19.120Z,40.90
2022-11-30T10:18:58.893Z,39.53
2022-11-30T10:21:48.769Z,39.50
2022-11-30T10:24:27.881Z,40.27
2022-11-30T10:26:57.322Z,40.83
2022-11-30T10:29:32.432Z,38.87
2022-11-30T10:32:02.241Z,38.63
2022-11-30T10:34:34.464Z,38.60
2022-11-30T10:37:07.050Z,39.70
2022-11-30T10:39:39.785Z,39.53
2022-11-30T10:42:13.381Z,38.90
2022-11-30T10:44:47.438Z,36.43
2022-11-30T10:47:18.824Z,37.10
2022-11-30T10:49:49.909Z,41.90
2022-11-30T10:52:23.162Z,37.57
2022-11-30T10:54:56.867Z,39.03
2022-11-30T10:57:32.214Z,39.63
2022-11-30T11:00:06.445Z,36.97
2022-11-30T11:02:40.864Z,38.97
2022-11-30T11:05:21.834Z,38.57
2022-11-30T11:07:53.384Z,35.93
2022-11-30T11:10:25.348Z,37.43
2022-11-30T11:12:55.179Z,37.63
2022-11-30T11:15:26.770Z,34.00
2022-11-30T11:18:12.709Z,35.63
2022-11-30T11:20:42.647Z,38.13
2022-11-30T11:23:22.722Z,36.30
2022-11-30T11:25:53.191Z,35.57
2022-11-30T11:28:24.400Z,35.87
2022-11-30T11:30:56.284Z,32.53
2022-11-30T11:33:26.075Z,36.83
2022-11-30T11:35:56.532Z,38.00
2022-11-30T11:38:27.446Z,36.47
2022-11-30T11:40:58.720Z,35.83
2022-11-30T11:43:29.178Z,35.70
2022-11-30T11:46:01.780Z,33.77
2022-11-30T11:48:36.959Z,36.43
2022-11-30T11:51:08.045Z,37.63
2022-11-30T11:53:51.561Z,34.77
2022-11-30T11:56:26.085Z,36.03
2022-11-30T11:59:01.057Z,35.57
2022-11-30T12:01:55.772Z,36.80
2022-11-30T12:04:45.742Z,35.13
2022-11-30T12:07:24.038Z,33.77
2022-11-30T12:10:01.129Z,32.83
2022-11-30T12:12:29.189Z,34.87
2022-11-30T12:14:57.915Z,33.70
2022-11-30T12:17:47.732Z,34.77
2022-11-30T12:20:24.375Z,33.07
2022-11-30T12:23:05.101Z,34.73
2022-11-30T12:25:38.712Z,32.37
2022-11-30T12:28:20.168Z,33.13
2022-11-30T12:30:58.383Z,33.40
2022-11-30T12:33:40.337Z,33.67
2022-11-30T12:36:14.221Z,33.60
2022-11-30T12:38:49.547Z,33.53
2022-11-30T12:41:37.205Z,33.47
2022-11-30T12:44:22.210Z,34.17
2022-11-30T12:46:57.346Z,36.67
2022-11-30T12:49:42.089Z,35.23
2022-11-30T12:52:24.741Z,34.53
2022-11-30T12:55:00.732Z,32.87
2022-11-30T12:57:33.001Z,33.50
2022-11-30T13:00:59.887Z,33.00
2022-11-30T13:03:44.532Z,34.23
2022-11-30T13:06:18.068Z,36.43
2022-11-30T13:08:54.829Z,35.10
2022-11-30T13:11:28.367Z,34.30
2022-11-30T13:14:00.112Z,36.23
2022-11-30T13:16:30.646Z,34.13
2022-11-30T13:19:03.727Z,35.03
2022-11-30T13:21:38.609Z,37.27
2022-11-30T13:24:13.757Z,34.87
2022-11-30T13:26:47.032Z,35.27
2022-11-30T13:29:25.513Z,35.97
2022-11-30T13:31:57.627Z,34.93
2022-11-30T13:34:27.728Z,37.27
2022-11-30T13:37:05.834Z,36.30
2022-11-30T13:39:46.296Z,35.37
2022-11-30T13:42:37.371Z,37.53
2022-11-30T13:45:28.536Z,36.83
2022-11-30T13:47:58.161Z,35.47
2022-11-30T13:50:36.149Z,35.77
2022-11-30T13:53:24.537Z,33.23
2022-11-30T13:56:33.321Z,36.90
2022-11-30T13:59:43.136Z,35.33
2022-11-30T14:05:46.667Z,35.30
2022-11-30T14:08:33.079Z,36.87
2022-11-30T14:11:42.435Z,35.80
2022-11-30T14:14:46.032Z,36.47
2022-11-30T14:17:24.284Z,38.23
2022-11-30T14:19:54.066Z,38.37
2022-11-30T14:22:22.918Z,37.20
2022-11-30T14:24:52.445Z,39.13
2022-11-30T14:27:24.914Z,38.90
2022-11-30T14:29:57.998Z,38.67
2022-11-30T14:32:35.261Z,36.90
2022-11-30T14:35:09.044Z,36.47
2022-11-30T14:37:42.722Z,40.33
2022-11-30T14:40:19.978Z,40.37
2022-11-30T14:42:51.070Z,37.87
2022-11-30T14:45:22.362Z,37.90
2022-11-30T14:47:52.866Z,38.43
2022-11-30T14:50:26.349Z,38.77
2022-11-30T14:53:05.907Z,36.37
2022-11-30T14:55:42.288Z,37.63
2022-11-30T14:58:21.202Z,36.87
2022-11-30T15:00:51.065Z,37.40
2022-11-30T15:03:24.529Z,36.73
2022-11-30T15:05:53.796Z,37.50
2022-11-30T15:08:23.007Z,36.33
2022-11-30T15:10:52.567Z,36.90
2022-11-30T15:13:21.469Z,34.80
2022-11-30T15:15:54.830Z,36.73
2022-11-30T15:18:24.088Z,34.07
2022-11-30T15:20:56.589Z,36.87
2022-11-30T15:23:24.783Z,34.87
2022-11-30T15:25:58.695Z,37.80
2022-11-30T15:28:32.848Z,37.27
2022-11-30T15:31:04.431Z,36.70
2022-11-30T15:33:38.825Z,36.27
2022-11-30T15:36:31.217Z,35.63
2022-11-30T15:38:55.480Z,35.33
2022-11-30T15:41:26.513Z,36.00
2022-11-30T15:43:57.313Z,37.03
2022-11-30T15:46:44.515Z,35.77
2022-11-30T15:49:20.932Z,31.83
2022-11-30T15:51:58.954Z,32.83
2022-11-30T15:54:47.593Z,35.83
2022-11-30T15:57:18.052Z,35.23
2022-11-30T16:00:02.937Z,33.40
2022-11-30T16:02:35.061Z,34.47
2022-11-30T16:05:23.959Z,33.23
2022-11-30T16:07:54.897Z,33.07
2022-11-30T16:10:25.851Z,32.80
2022-11-30T16:12:57.138Z,31.80
2022-11-30T16:15:27.247Z,31.70
2022-11-30T16:17:59.658Z,33.83
2022-11-30T16:20:28.122Z,33.23
2022-11-30T16:22:57.938Z,34.63
2022-11-30T16:25:29.289Z,31.33
2022-11-30T16:27:58.665Z,32.37
2022-11-30T16:30:26.793Z,30.57
2022-11-30T16:32:54.859Z,32.60
2022-11-30T16:35:25.188Z,32.97
2022-11-30T16:37:53.343Z,33.17
2022-11-30T16:40:21.485Z,33.90
2022-11-30T16:42:50.894Z,33.57
2022-11-30T16:45:22.949Z,34.03
2022-11-30T16:47:51.376Z,31.93
2022-11-30T16:50:20.269Z,32.67
2022-11-30T16:52:48.578Z,33.77
2022-11-30T16:55:18.427Z,33.07
2022-11-30T16:57:46.812Z,33.80
2022-11-30T17:00:17.260Z,33.20
2022-11-30T17:02:53.605Z,33.63
2022-11-30T17:05:22.065Z,32.97
2022-11-30T17:07:50.164Z,33.53
2022-11-30T17:10:18.537Z,32.57
2022-11-30T17:12:46.661Z,31.57
2022-11-30T17:15:17.284Z,31.97
2022-11-30T17:17:46.881Z,32.27
2022-11-30T17:20:17.099Z,33.50
2022-11-30T17:22:46.011Z,31.20
2022-11-30T17:25:17.024Z,32.77
2022-11-30T17:27:45.179Z,32.37
2022-11-30T17:30:17.875Z,32.10
2022-11-30T17:32:47.346Z,30.43
2022-11-30T17:35:15.776Z,31.27
2022-11-30T17:37:43.871Z,32.00
2022-11-30T17:40:15.320Z,33.33
2022-11-30T17:42:44.003Z,32.87
2022-11-30T17:45:12.368Z,32.27
2022-11-30T17:47:40.438Z,32.73
2022-11-30T17:50:11.157Z,32.77
2022-11-30T17:52:39.296Z,32.57
2022-11-30T17:55:08.627Z,31.03
2022-11-30T17:57:38.607Z,32.87
2022-11-30T18:00:08.750Z,32.53
2022-11-30T18:02:36.918Z,32.27
2022-11-30T18:05:05.572Z,31.40
2022-11-30T18:07:35.871Z,33.60
2022-11-30T18:10:04.337Z,34.03
2022-11-30T18:12:32.603Z,34.87
2022-11-30T18:15:00.748Z,31.47
2022-11-30T18:17:28.829Z,32.93
2022-11-30T18:19:56.815Z,33.53
2022-11-30T18:22:25.289Z,31.60
2022-11-30T18:24:54.782Z,34.10
2022-11-30T18:27:22.894Z,35.60
2022-11-30T18:29:51.997Z,35.13
2022-11-30T18:32:20.095Z,34.00
2022-11-30T18:34:49.748Z,33.07
2022-11-30T18:37:18.278Z,36.70
2022-11-30T18:39:46.307Z,37.10
2022-11-30T18:42:16.302Z,33.07
2022-11-30T18:44:44.360Z,33.30
2022-11-30T18:47:16.146Z,36.33
2022-11-30T18:49:44.177Z,38.10
2022-11-30T18:52:12.296Z,36.23
2022-11-30T18:54:40.337Z,34.57
2022-11-30T18:57:08.546Z,36.73
2022-11-30T18:59:37.941Z,34.93
2022-11-30T19:02:06.043Z,35.20
2022-11-30T19:04:34.246Z,35.40
2022-11-30T19:07:02.285Z,34.40
2022-11-30T19:09:30.637Z,34.07
2022-11-30T19:12:00.084Z,35.23
2022-11-30T19:14:30.312Z,32.50
2022-11-30T19:17:00.805Z,34.47
2022-11-30T19:19:28.982Z,34.27
2022-11-30T19:21:58.243Z,33.30
2022-11-30T19:24:26.396Z,32.90
2022-11-30T19:26:54.501Z,34.17
2022-11-30T19:29:22.585Z,32.93
2022-11-30T19:31:50.619Z,34.70
2022-11-30T19:34:20.023Z,33.10
2022-11-30T19:36:48.080Z,33.80
2022-11-30T19:39:16.070Z,33.03
2022-11-30T19:41:44.108Z,31.80
2022-11-30T19:44:14.901Z,33.63
2022-11-30T19:46:43.388Z,32.07
2022-11-30T19:49:11.879Z,34.33
2022-11-30T19:51:43.422Z,34.13
2022-11-30T19:54:11.642Z,29.30
2022-11-30T19:56:41.769Z,33.83
2022-11-30T19:59:09.904Z,33.70
2022-11-30T20:01:38.677Z,32.40
2022-11-30T20:04:06.881Z,32.50
2022-11-30T20:06:36.918Z,29.67
2022-11-30T20:09:08.240Z,30.40
2022-11-30T20:11:36.420Z,33.03
2022-11-30T20:14:04.704Z,35.70
2022-11-30T20:16:32.794Z,29.57
2022-11-30T20:19:02.784Z,33.37
2022-11-30T20:21:32.982Z,33.77
2022-11-30T20:24:03.463Z,33.63
2022-11-30T20:26:34.960Z,34.53
2022-11-30T20:29:04.442Z,29.97
2022-11-30T20:31:34.701Z,34.50
2022-11-30T20:34:03.230Z,31.73
2022-11-30T20:36:31.529Z,35.57
2022-11-30T20:39:00.050Z,36.33
2022-11-30T20:41:28.588Z,35.53
2022-11-30T20:43:58.029Z,35.87
2022-11-30T20:46:28.127Z,35.40
2022-11-30T20:48:56.853Z,36.17
2022-11-30T20:51:31.629Z,37.87
2022-11-30T20:54:00.589Z,34.30
2022-11-30T20:56:31.148Z,36.90
2022-11-30T20:59:05.001Z,39.00
2022-11-30T21:01:33.278Z,40.10
2022-11-30T21:04:01.737Z,39.37
2022-11-30T21:06:30.472Z,42.37
2022-11-30T21:08:59.058Z,40.33
2022-11-30T21:11:28.567Z,42.60
2022-11-30T21:13:57.998Z,42.53
2022-11-30T21:16:29.711Z,43.40
2022-11-30T21:18:59.780Z,44.33
2022-11-30T21:21:30.547Z,46.03
2022-11-30T21:23:59.876Z,45.17
2022-11-30T21:26:29.932Z,47.43
2022-11-30T21:29:01.602Z,42.00
2022-11-30T21:31:31.629Z,45.53
2022-11-30T21:34:00.027Z,43.93
2022-11-30T21:36:29.032Z,45.27
2022-11-30T21:39:04.392Z,47.40
2022-11-30T21:41:33.549Z,47.20
2022-11-30T21:44:03.588Z,44.97
2022-11-30T21:46:33.657Z,45.10
2022-11-30T21:49:01.989Z,42.00
2022-11-30T21:51:31.657Z,47.20
2022-11-30T21:54:03.029Z,48.03
2022-11-30T21:56:32.683Z,46.67
2022-11-30T21:59:01.208Z,45.83
2022-11-30T22:01:33.127Z,46.43
2022-11-30T22:04:02.733Z,42.00
2022-11-30T22:06:31.783Z,49.17
2022-11-30T22:09:03.209Z,48.27
2022-11-30T22:11:32.234Z,43.47
2022-11-30T22:14:00.528Z,47.47
2022-11-30T22:16:35.533Z,47.03
2022-11-30T22:19:07.215Z,48.83
2022-11-30T22:21:35.693Z,41.73
2022-11-30T22:24:05.719Z,46.70
2022-11-30T22:26:35.650Z,43.77
2022-11-30T22:29:06.291Z,46.83
2022-11-30T22:31:36.752Z,48.03
2022-11-30T22:34:07.087Z,47.03
2022-11-30T22:36:37.168Z,43.23
2022-11-30T22:39:07.185Z,47.90
2022-11-30T22:41:35.220Z,48.50
2022-11-30T22:44:03.239Z,41.07
2022-11-30T22:46:32.909Z,48.70
2022-11-30T22:49:02.057Z,47.57
2022-11-30T22:51:33.119Z,45.97
2022-11-30T22:54:01.756Z,42.70
2022-11-30T22:56:32.136Z,46.97
2022-11-30T22:59:01.258Z,47.97
2022-11-30T23:01:30.795Z,45.23
2022-11-30T23:04:03.613Z,47.67
2022-11-30T23:06:33.699Z,43.40
2022-11-30T23:09:01.707Z,49.10
2022-11-30T23:11:30.702Z,48.57
2022-11-30T23:13:58.927Z,47.63
2022-11-30T23:16:27.096Z,47.37
2022-11-30T23:18:57.189Z,48.47
2022-11-30T23:21:28.922Z,49.23
2022-11-30T23:24:02.469Z,47.67
2022-11-30T23:26:31.997Z,44.93
2022-11-30T23:29:01.757Z,47.57
2022-11-30T23:31:33.954Z,47.57
2022-11-30T23:34:05.057Z,44.83
2022-11-30T23:36:33.665Z,46.13
2022-11-30T23:39:05.175Z,49.43
2022-11-30T23:41:33.651Z,45.80
2022-11-30T23:44:01.735Z,42.73
2022-11-30T23:46:30.230Z,49.63
2022-11-30T23:48:58.829Z,45.97
2022-11-30T23:51:28.008Z,48.00
2022-11-30T23:53:56.084Z,48.60
2022-11-30T23:56:25.805Z,48.30
2022-11-30T23:58:54.060Z,47.40
